Time;durP1;ratioP1;P1;durP2;ratioP2;P2;SDS_P1;SDS_P2;PMS_P1;PMS_P2;Temp;Humidity;BMP_temperature;BMP_pressure;BME280_temperature;BME280_humidity;BME280_pressure;Samples;Min_cycle;Max_cycle;Signal;HPM_P1;HPM_P2
2021/06/15 00:01:56;;;;;;;9.52;6.13;;;;;;;;;;5111441;28;20050;-67
2021/06/15 00:04:22;;;;;;;9.15;5.88;;;;;;;;;;5112505;28;20035;-67
2021/06/15 00:06:48;;;;;;;13.23;6.63;;;;;;;;;;5124252;27;20023;-67
2021/06/15 00:09:14;;;;;;;12.07;6.13;;;;;;;;;;5096721;28;20058;-67
2021/06/15 00:11:44;;;;;;;15.27;7.03;;;;;;;;;;5123768;27;20023;-67
2021/06/15 00:14:12;;;;;;;15.63;7.03;;;;;;;;;;5132921;27;20037;-67
2021/06/15 00:16:38;;;;;;;12.07;7.47;;;;;;;;;;5113375;27;20538;-66
2021/06/15 00:19:04;;;;;;;16.15;7.43;;;;;;;;;;5092285;28;20064;-68
2021/06/15 00:21:30;;;;;;;11.48;6.22;;;;;;;;;;5092389;28;20099;-68
2021/06/15 00:23:56;;;;;;;10.48;7.55;;;;;;;;;;5092424;28;20028;-67
2021/06/15 00:26:24;;;;;;;14.00;7.40;;;;;;;;;;5102414;28;20374;-68
2021/06/15 00:28:50;;;;;;;10.50;7.25;;;;;;;;;;5119305;27;20031;-68
2021/06/15 00:31:18;;;;;;;17.15;6.68;;;;;;;;;;5129342;27;20079;-68
2021/06/15 00:33:44;;;;;;;14.32;7.07;;;;;;;;;;5132519;27;20058;-69
2021/06/15 00:36:10;;;;;;;11.82;7.90;;;;;;;;;;5132603;27;20062;-67
2021/06/15 00:38:36;;;;;;;13.60;8.30;;;;;;;;;;5109455;27;20028;-66
2021/06/15 00:41:05;;;;;;;11.50;7.78;;;;;;;;;;5094025;28;20031;-67
2021/06/15 00:43:31;;;;;;;11.75;7.55;;;;;;;;;;5099401;28;20020;-67
2021/06/15 00:45:57;;;;;;;10.95;7.18;;;;;;;;;;5127900;27;20060;-67
2021/06/15 00:48:33;;;;;;;13.95;8.50;;;;;;;;;;5132362;27;20068;-67
2021/06/15 00:50:59;;;;;;;14.13;7.82;;;;;;;;;;5122862;27;20027;-67
2021/06/15 00:53:26;;;;;;;15.25;7.75;;;;;;;;;;5122910;27;20517;-67
2021/06/15 00:55:54;;;;;;;15.60;8.05;;;;;;;;;;5101233;28;20063;-67
2021/06/15 00:58:22;;;;;;;13.68;7.00;;;;;;;;;;5111651;28;20103;-67
2021/06/15 01:00:48;;;;;;;13.02;7.72;;;;;;;;;;5111741;28;20023;-66
2021/06/15 01:03:17;;;;;;;16.90;8.20;;;;;;;;;;5114240;28;20034;-67
2021/06/15 01:05:43;;;;;;;15.55;8.07;;;;;;;;;;5132216;27;20023;-68
2021/06/15 01:08:17;;;;;;;12.30;7.38;;;;;;;;;;5098108;28;20115;-66
2021/06/15 01:11:02;;;;;;;15.57;9.02;;;;;;;;;;5128324;28;20054;-66
2021/06/15 01:13:43;;;;;;;12.40;7.10;;;;;;;;;;5114274;28;20016;-66
2021/06/15 01:16:15;;;;;;;15.02;7.70;;;;;;;;;;5103942;28;20028;-65
2021/06/15 01:18:45;;;;;;;12.20;7.72;;;;;;;;;;5111731;28;20016;-66
2021/06/15 01:21:12;;;;;;;13.40;8.52;;;;;;;;;;5111623;28;20024;-66
2021/06/15 01:23:59;;;;;;;12.02;8.27;;;;;;;;;;5093442;28;20431;-66
2021/06/15 01:26:54;;;;;;;11.48;7.72;;;;;;;;;;5125607;28;20020;-66
2021/06/15 01:29:49;;;;;;;12.52;8.55;;;;;;;;;;5125474;28;20115;-67
2021/06/15 01:32:24;;;;;;;12.63;7.95;;;;;;;;;;5112382;28;20174;-66
2021/06/15 01:34:52;;;;;;;16.20;7.90;;;;;;;;;;5094418;28;20035;-66
2021/06/15 01:37:23;;;;;;;12.27;7.78;;;;;;;;;;5086747;28;20019;-66
2021/06/15 01:39:53;;;;;;;13.18;7.28;;;;;;;;;;5104868;28;20043;-66
2021/06/15 01:42:22;;;;;;;13.07;8.00;;;;;;;;;;5104750;28;20024;-65
2021/06/15 01:44:51;;;;;;;14.32;7.82;;;;;;;;;;5117786;28;20280;-67
2021/06/15 01:47:17;;;;;;;14.77;9.35;;;;;;;;;;5132102;28;20328;-66
2021/06/15 01:49:50;;;;;;;15.82;8.55;;;;;;;;;;5117686;28;20034;-67
2021/06/15 01:52:16;;;;;;;13.18;8.60;;;;;;;;;;5087256;28;20478;-68
2021/06/15 01:54:43;;;;;;;13.85;8.80;;;;;;;;;;5104713;28;20039;-67
2021/06/15 01:57:11;;;;;;;15.95;9.30;;;;;;;;;;5114216;28;20024;-67
2021/06/15 01:59:38;;;;;;;16.98;10.30;;;;;;;;;;5101551;28;20545;-66
2021/06/15 02:02:06;;;;;;;13.38;9.27;;;;;;;;;;5114886;28;20084;-67
2021/06/15 02:04:39;;;;;;;14.52;9.45;;;;;;;;;;5128855;27;20087;-66
2021/06/15 02:07:05;;;;;;;16.45;9.65;;;;;;;;;;5121526;27;20406;-66
2021/06/15 02:09:32;;;;;;;14.93;9.50;;;;;;;;;;5128760;27;20080;-67
2021/06/15 02:11:58;;;;;;;15.45;10.55;;;;;;;;;;5135530;27;20015;-67
2021/06/15 02:14:27;;;;;;;16.38;10.07;;;;;;;;;;5108408;27;20379;-67
2021/06/15 02:16:57;;;;;;;14.93;9.93;;;;;;;;;;5116353;27;20047;-67
2021/06/15 02:19:25;;;;;;;15.73;9.88;;;;;;;;;;5108283;28;20031;-66
2021/06/15 02:22:01;;;;;;;14.45;9.38;;;;;;;;;;5114639;28;20112;-67
2021/06/15 02:24:33;;;;;;;13.15;10.30;;;;;;;;;;5097798;27;20020;-66
2021/06/15 02:26:59;;;;;;;16.92;11.00;;;;;;;;;;5135020;27;20027;-66
2021/06/15 02:29:26;;;;;;;15.10;10.10;;;;;;;;;;5101803;28;20607;-66
2021/06/15 02:31:55;;;;;;;17.52;10.88;;;;;;;;;;5121734;27;20321;-66
2021/06/15 02:34:26;;;;;;;21.73;12.25;;;;;;;;;;5107682;28;20450;-67
2021/06/15 02:36:52;;;;;;;14.00;10.15;;;;;;;;;;5112478;28;20417;-66
2021/06/15 02:39:20;;;;;;;17.65;10.35;;;;;;;;;;5102982;28;20030;-67
2021/06/15 02:41:48;;;;;;;13.98;10.73;;;;;;;;;;5112539;28;20039;-67
2021/06/15 02:44:18;;;;;;;16.50;10.35;;;;;;;;;;5100440;27;20035;-67
2021/06/15 02:46:48;;;;;;;15.45;10.80;;;;;;;;;;5134761;27;20037;-67
2021/06/15 02:49:16;;;;;;;16.70;11.52;;;;;;;;;;5125068;27;20028;-67
2021/06/15 02:51:48;;;;;;;17.45;11.82;;;;;;;;;;5128273;27;20023;-67
2021/06/15 02:54:25;;;;;;;17.95;12.13;;;;;;;;;;5104315;28;20036;-67
2021/06/15 02:56:53;;;;;;;19.77;12.05;;;;;;;;;;5094047;28;20081;-67
2021/06/15 02:59:20;;;;;;;14.30;11.38;;;;;;;;;;5100590;28;20077;-67
2021/06/15 03:01:50;;;;;;;18.23;12.60;;;;;;;;;;5093646;28;20024;-67
2021/06/15 03:04:19;;;;;;;17.60;11.65;;;;;;;;;;5105163;27;20059;-66
2021/06/15 03:06:45;;;;;;;17.75;11.88;;;;;;;;;;5104517;28;20448;-67
2021/06/15 03:09:12;;;;;;;24.70;12.57;;;;;;;;;;5124786;27;20074;-66
2021/06/15 03:11:41;;;;;;;17.33;13.23;;;;;;;;;;5120367;27;20055;-66
2021/06/15 03:14:22;;;;;;;26.27;13.90;;;;;;;;;;5117654;27;20038;-67
2021/06/15 03:16:51;;;;;;;17.55;11.98;;;;;;;;;;5101906;27;20103;-66
2021/06/15 03:19:21;;;;;;;19.98;13.48;;;;;;;;;;5093448;28;20031;-67
2021/06/15 03:21:54;;;;;;;21.30;13.52;;;;;;;;;;5093693;28;20035;-67
2021/06/15 03:24:22;;;;;;;17.70;13.07;;;;;;;;;;5090138;27;20363;-67
2021/06/15 03:27:04;;;;;;;23.13;13.05;;;;;;;;;;5115220;27;20038;-67
2021/06/15 03:29:31;;;;;;;24.30;14.50;;;;;;;;;;5113210;28;20396;-67
2021/06/15 03:32:00;;;;;;;19.15;13.75;;;;;;;;;;5113216;28;20024;-67
2021/06/15 03:34:28;;;;;;;19.23;13.98;;;;;;;;;;5110987;27;20020;-66
2021/06/15 03:36:56;;;;;;;27.08;15.90;;;;;;;;;;5109227;28;20025;-66
2021/06/15 03:39:23;;;;;;;21.38;15.75;;;;;;;;;;5106299;28;20038;-67
2021/06/15 03:41:52;;;;;;;21.60;15.05;;;;;;;;;;5113057;28;20103;-67
2021/06/15 03:44:20;;;;;;;24.38;15.43;;;;;;;;;;5120049;27;20035;-66
2021/06/15 03:46:49;;;;;;;25.15;15.50;;;;;;;;;;5108284;28;20447;-66
2021/06/15 03:49:16;;;;;;;18.70;15.07;;;;;;;;;;5112825;28;20035;-67
2021/06/15 03:51:53;;;;;;;23.75;15.63;;;;;;;;;;5113136;28;20106;-67
2021/06/15 03:54:23;;;;;;;23.83;16.45;;;;;;;;;;5112776;28;20080;-67
2021/06/15 03:56:51;;;;;;;20.98;15.65;;;;;;;;;;5112842;28;20364;-67
2021/06/15 03:59:22;;;;;;;24.77;16.95;;;;;;;;;;5108840;28;20020;-65
2021/06/15 04:01:51;;;;;;;25.33;16.38;;;;;;;;;;5110738;28;20119;-66
2021/06/15 04:04:17;;;;;;;26.80;17.10;;;;;;;;;;5119833;27;20096;-66
2021/06/15 04:06:51;;;;;;;22.73;16.35;;;;;;;;;;5094676;28;20467;-66
2021/06/15 04:09:20;;;;;;;26.80;17.88;;;;;;;;;;5124570;27;20058;-67
2021/06/15 04:11:47;;;;;;;24.38;16.08;;;;;;;;;;5133020;27;20066;-66
2021/06/15 04:14:14;;;;;;;26.35;17.55;;;;;;;;;;5120737;27;20079;-67
2021/06/15 04:16:40;;;;;;;21.02;16.33;;;;;;;;;;5113806;28;20035;-67
2021/06/15 04:19:12;;;;;;;27.02;17.02;;;;;;;;;;5111674;28;20023;-66
2021/06/15 04:21:45;;;;;;;23.85;16.45;;;;;;;;;;5112393;28;20028;-67
2021/06/15 04:24:13;;;;;;;28.77;17.83;;;;;;;;;;5112474;28;20027;-67
2021/06/15 04:26:39;;;;;;;26.88;19.30;;;;;;;;;;5112449;28;20095;-67
2021/06/15 04:29:10;;;;;;;23.00;16.92;;;;;;;;;;5112226;28;20034;-67
2021/06/15 04:31:36;;;;;;;24.13;16.55;;;;;;;;;;5125618;27;20027;-67
2021/06/15 04:34:03;;;;;;;28.70;17.73;;;;;;;;;;5106698;27;20020;-67
2021/06/15 04:36:32;;;;;;;27.88;17.23;;;;;;;;;;5098044;28;20407;-66
2021/06/15 04:39:07;;;;;;;27.00;18.63;;;;;;;;;;5111960;28;20043;-67
2021/06/15 04:41:41;;;;;;;27.65;17.73;;;;;;;;;;5112070;28;20422;-67
2021/06/15 04:44:12;;;;;;;24.55;17.73;;;;;;;;;;5120007;27;20023;-67
2021/06/15 04:46:45;;;;;;;26.67;18.25;;;;;;;;;;5132628;27;20031;-68
2021/06/15 04:49:11;;;;;;;25.38;17.73;;;;;;;;;;5132589;27;20023;-67
2021/06/15 04:51:37;;;;;;;24.02;17.38;;;;;;;;;;5130727;27;20087;-67
2021/06/15 04:54:04;;;;;;;23.88;18.17;;;;;;;;;;5114384;27;20083;-67
2021/06/15 04:56:30;;;;;;;26.83;17.98;;;;;;;;;;5111633;28;20020;-67
2021/06/15 04:59:00;;;;;;;24.92;17.40;;;;;;;;;;5093536;28;20038;-68
2021/06/15 05:01:27;;;;;;;24.73;18.40;;;;;;;;;;5111604;28;20020;-68
2021/06/15 05:03:56;;;;;;;25.95;17.67;;;;;;;;;;5119059;27;20093;-68
2021/06/15 05:06:22;;;;;;;26.95;17.80;;;;;;;;;;5093867;28;20348;-67
2021/06/15 05:08:54;;;;;;;28.65;19.23;;;;;;;;;;5094635;28;20526;-68
2021/06/15 05:11:21;;;;;;;30.55;18.58;;;;;;;;;;5123393;28;20443;-68
2021/06/15 05:13:48;;;;;;;27.80;19.92;;;;;;;;;;5104603;28;20023;-68
2021/06/15 05:16:16;;;;;;;24.35;18.02;;;;;;;;;;5111058;28;20039;-68
2021/06/15 05:18:42;;;;;;;25.85;18.38;;;;;;;;;;5091517;28;20024;-69
2021/06/15 05:21:14;;;;;;;32.58;20.02;;;;;;;;;;5106286;28;20027;-67
2021/06/15 05:23:44;;;;;;;27.42;18.33;;;;;;;;;;5111596;28;20472;-68
2021/06/15 05:26:13;;;;;;;26.17;19.17;;;;;;;;;;5119196;28;20520;-68
2021/06/15 05:28:39;;;;;;;25.20;18.38;;;;;;;;;;5111373;28;20051;-68
2021/06/15 05:31:05;;;;;;;30.20;18.80;;;;;;;;;;5092743;28;20492;-67
2021/06/15 05:33:31;;;;;;;23.42;18.33;;;;;;;;;;5096986;28;20024;-67
2021/06/15 05:35:57;;;;;;;28.80;19.10;;;;;;;;;;5090889;28;20024;-67
2021/06/15 05:38:23;;;;;;;22.92;18.55;;;;;;;;;;5102876;28;20038;-67
2021/06/15 05:40:49;;;;;;;28.45;18.83;;;;;;;;;;5116048;28;20091;-67
2021/06/15 05:43:16;;;;;;;28.40;19.20;;;;;;;;;;5116025;28;20058;-67
2021/06/15 05:45:45;;;;;;;27.05;18.13;;;;;;;;;;5129782;27;20018;-68
2021/06/15 05:48:11;;;;;;;30.80;19.02;;;;;;;;;;5109196;27;20022;-67
2021/06/15 05:50:38;;;;;;;22.05;16.40;;;;;;;;;;5136001;27;20037;-66
2021/06/15 05:53:06;;;;;;;27.20;17.75;;;;;;;;;;5121558;27;20024;-66
2021/06/15 05:55:32;;;;;;;24.02;16.58;;;;;;;;;;5108326;28;20024;-66
2021/06/15 05:57:58;;;;;;;26.55;17.65;;;;;;;;;;5115276;28;20091;-66
2021/06/15 06:00:24;;;;;;;24.42;16.27;;;;;;;;;;5115115;28;20035;-66
2021/06/15 06:02:51;;;;;;;22.65;15.82;;;;;;;;;;5122020;27;20090;-67
2021/06/15 06:10:28;;;;;;;21.60;15.57;;;;;;;;;;5135336;27;20127;-66
2021/06/15 06:12:54;;;;;;;23.00;15.82;;;;;;;;;;5127042;27;20068;-66
2021/06/15 06:15:22;;;;;;;21.67;15.50;;;;;;;;;;5114076;28;20072;-66
2021/06/15 06:17:48;;;;;;;24.52;15.80;;;;;;;;;;5109875;28;20333;-67
2021/06/15 06:20:15;;;;;;;27.17;16.35;;;;;;;;;;5096966;28;20024;-67
2021/06/15 06:22:41;;;;;;;25.08;14.93;;;;;;;;;;5129096;27;20110;-66
2021/06/15 06:25:09;;;;;;;22.35;16.05;;;;;;;;;;5134912;27;20076;-65
2021/06/15 06:27:35;;;;;;;22.58;15.15;;;;;;;;;;5127613;27;20102;-66
2021/06/15 06:30:01;;;;;;;30.40;18.38;;;;;;;;;;5114483;28;20404;-66
2021/06/15 06:32:27;;;;;;;20.63;14.57;;;;;;;;;;5114477;28;20029;-66
2021/06/15 06:34:53;;;;;;;23.83;15.63;;;;;;;;;;5103941;27;20036;-66
2021/06/15 06:37:19;;;;;;;21.65;15.43;;;;;;;;;;5107289;28;20368;-66
2021/06/15 06:39:48;;;;;;;20.88;14.85;;;;;;;;;;5107635;28;20088;-66
2021/06/15 06:42:18;;;;;;;23.50;14.93;;;;;;;;;;5126746;27;20027;-65
2021/06/15 06:44:44;;;;;;;22.60;14.98;;;;;;;;;;5128531;27;20066;-66
2021/06/15 06:47:10;;;;;;;18.35;13.23;;;;;;;;;;5125058;27;20039;-65
2021/06/15 06:49:36;;;;;;;20.60;16.08;;;;;;;;;;5097010;28;20050;-65
2021/06/15 06:52:02;;;;;;;22.85;15.32;;;;;;;;;;5115984;27;20095;-66
2021/06/15 06:54:28;;;;;;;23.90;13.88;;;;;;;;;;5094746;28;20432;-66
2021/06/15 06:56:55;;;;;;;18.70;14.80;;;;;;;;;;5113959;28;20126;-65
2021/06/15 06:59:21;;;;;;;19.00;13.77;;;;;;;;;;5113885;28;20023;-64
2021/06/15 07:01:47;;;;;;;20.02;12.85;;;;;;;;;;5089422;28;20486;-64
2021/06/15 07:04:14;;;;;;;18.65;12.95;;;;;;;;;;5120615;27;20027;-65
2021/06/15 07:06:40;;;;;;;20.02;13.02;;;;;;;;;;5113744;28;20024;-65
2021/06/15 07:09:06;;;;;;;18.65;12.30;;;;;;;;;;5113303;28;20039;-64
2021/06/15 07:11:32;;;;;;;19.30;12.70;;;;;;;;;;5106514;28;20027;-64
2021/06/15 07:13:58;;;;;;;16.00;12.50;;;;;;;;;;5096339;28;20020;-64
2021/06/15 07:16:24;;;;;;;13.80;11.40;;;;;;;;;;5103817;27;20023;-64
2021/06/15 07:18:50;;;;;;;19.83;12.63;;;;;;;;;;5099081;28;20032;-63
2021/06/15 07:21:16;;;;;;;15.80;10.35;;;;;;;;;;5115512;27;20020;-63
2021/06/15 07:23:42;;;;;;;17.90;11.45;;;;;;;;;;5113325;27;20357;-63
2021/06/15 07:26:08;;;;;;;16.05;11.18;;;;;;;;;;5133200;27;20084;-63
2021/06/15 07:28:34;;;;;;;14.48;10.73;;;;;;;;;;5124595;27;20024;-64
2021/06/15 07:31:03;;;;;;;15.15;11.20;;;;;;;;;;5113460;28;20031;-64
2021/06/15 07:33:29;;;;;;;15.02;10.88;;;;;;;;;;5113170;28;20393;-62
2021/06/15 07:35:57;;;;;;;14.73;10.07;;;;;;;;;;5111602;28;20019;-63
2021/06/15 07:38:23;;;;;;;15.13;10.15;;;;;;;;;;5108024;28;20449;-62
2021/06/15 07:40:49;;;;;;;15.05;10.85;;;;;;;;;;5099644;28;20024;-64
2021/06/15 07:43:18;;;;;;;19.25;10.32;;;;;;;;;;5120813;27;20019;-63
2021/06/15 07:45:44;;;;;;;14.13;10.13;;;;;;;;;;5124988;27;20027;-63
2021/06/15 07:48:10;;;;;;;12.68;9.43;;;;;;;;;;5131688;27;20031;-64
2021/06/15 07:50:36;;;;;;;11.40;9.45;;;;;;;;;;5118011;27;20027;-63
2021/06/15 07:53:05;;;;;;;13.73;10.98;;;;;;;;;;5088190;28;20028;-64
2021/06/15 07:55:31;;;;;;;12.65;8.52;;;;;;;;;;5106109;28;20099;-67
2021/06/15 07:57:57;;;;;;;11.77;10.38;;;;;;;;;;5106507;28;20366;-64
2021/06/15 08:00:23;;;;;;;16.75;10.95;;;;;;;;;;5113850;27;20346;-62
2021/06/15 08:02:49;;;;;;;11.73;8.38;;;;;;;;;;5126900;27;20390;-63
2021/06/15 08:05:16;;;;;;;13.70;9.88;;;;;;;;;;5113308;27;20023;-63
2021/06/15 08:07:48;;;;;;;15.15;10.85;;;;;;;;;;5119844;27;20042;-63
2021/06/15 08:10:16;;;;;;;16.08;10.40;;;;;;;;;;5113272;27;20124;-64
2021/06/15 08:12:44;;;;;;;15.82;9.65;;;;;;;;;;5093660;28;20027;-64
2021/06/15 08:15:10;;;;;;;15.57;10.77;;;;;;;;;;5106102;28;20024;-65
2021/06/15 08:17:36;;;;;;;14.82;8.73;;;;;;;;;;5100613;28;20035;-63
2021/06/15 08:20:03;;;;;;;19.60;10.07;;;;;;;;;;5112881;28;20027;-63
2021/06/15 08:22:29;;;;;;;18.08;8.98;;;;;;;;;;5124921;27;20027;-64
2021/06/15 08:24:55;;;;;;;13.80;9.15;;;;;;;;;;5101664;28;20081;-64
2021/06/15 08:27:22;;;;;;;15.85;7.80;;;;;;;;;;5118716;27;20039;-63
2021/06/15 08:29:48;;;;;;;15.73;7.47;;;;;;;;;;5106358;27;20414;-64
2021/06/15 08:32:14;;;;;;;12.25;7.03;;;;;;;;;;5091753;28;20030;-63
2021/06/15 08:34:41;;;;;;;12.45;6.75;;;;;;;;;;5110149;28;20137;-63
2021/06/15 08:37:09;;;;;;;9.43;6.57;;;;;;;;;;5109920;27;20448;-64
2021/06/15 08:39:35;;;;;;;10.63;6.72;;;;;;;;;;5129434;27;20647;-64
2021/06/15 08:42:01;;;;;;;11.90;7.28;;;;;;;;;;5118601;27;20039;-64
2021/06/15 08:44:27;;;;;;;10.73;6.35;;;;;;;;;;5115740;27;20027;-64
2021/06/15 08:46:56;;;;;;;11.07;6.55;;;;;;;;;;5113486;27;20043;-64
2021/06/15 08:49:21;;;;;;;8.63;6.00;;;;;;;;;;5093342;28;20028;-65
2021/06/15 08:51:48;;;;;;;9.63;6.32;;;;;;;;;;5104499;28;20043;-64
2021/06/15 08:54:18;;;;;;;12.13;5.28;;;;;;;;;;5111278;28;20107;-63
2021/06/15 08:56:44;;;;;;;7.97;5.57;;;;;;;;;;5122711;27;20047;-63
2021/06/15 08:59:29;;;;;;;7.20;4.78;;;;;;;;;;5121342;27;20019;-63
2021/06/15 09:02:05;;;;;;;7.90;4.75;;;;;;;;;;5132105;27;20455;-64
2021/06/15 09:04:33;;;;;;;7.15;4.15;;;;;;;;;;5125711;27;20034;-63
2021/06/15 09:06:59;;;;;;;8.95;5.00;;;;;;;;;;5103367;28;20036;-63
2021/06/15 09:09:38;;;;;;;7.38;4.65;;;;;;;;;;5092943;28;20097;-63
2021/06/15 09:12:07;;;;;;;9.55;6.00;;;;;;;;;;5110964;28;20422;-64
2021/06/15 09:14:42;;;;;;;9.43;5.40;;;;;;;;;;5104263;28;20095;-63
2021/06/15 09:17:13;;;;;;;7.07;5.40;;;;;;;;;;5103638;28;20106;-64
2021/06/15 09:19:40;;;;;;;11.07;4.80;;;;;;;;;;5127914;28;20079;-64
2021/06/15 09:22:21;;;;;;;11.25;5.30;;;;;;;;;;5111072;28;20043;-63
2021/06/15 09:24:47;;;;;;;7.30;4.47;;;;;;;;;;5111137;28;20023;-63
2021/06/15 09:27:13;;;;;;;9.40;5.03;;;;;;;;;;5099323;28;20104;-64
2021/06/15 09:29:46;;;;;;;6.82;3.88;;;;;;;;;;5098143;28;20055;-64
2021/06/15 09:32:16;;;;;;;5.85;4.13;;;;;;;;;;5110262;28;20044;-64
2021/06/15 09:34:46;;;;;;;8.38;4.32;;;;;;;;;;5123669;28;20390;-64
2021/06/15 09:37:12;;;;;;;6.15;4.20;;;;;;;;;;5124611;28;20059;-64
2021/06/15 09:39:38;;;;;;;5.88;4.40;;;;;;;;;;5131664;28;20030;-64
2021/06/15 09:42:04;;;;;;;8.48;4.68;;;;;;;;;;5125857;28;20106;-64
2021/06/15 09:44:31;;;;;;;5.45;3.85;;;;;;;;;;5105700;28;20104;-64
2021/06/15 09:46:56;;;;;;;7.00;4.68;;;;;;;;;;5109261;28;20027;-64
2021/06/15 09:49:49;;;;;;;7.72;4.68;;;;;;;;;;5105906;28;20034;-64
2021/06/15 09:52:20;;;;;;;6.97;3.95;;;;;;;;;;5103171;28;20081;-64
2021/06/15 09:54:46;;;;;;;12.15;4.18;;;;;;;;;;5119272;28;20015;-66
2021/06/15 09:57:19;;;;;;;6.93;4.28;;;;;;;;;;5122650;28;20020;-64
2021/06/15 10:00:04;;;;;;;7.32;4.80;;;;;;;;;;5120019;28;20023;-64
2021/06/15 10:02:30;;;;;;;7.93;5.10;;;;;;;;;;5116968;28;20027;-64
2021/06/15 10:04:59;;;;;;;7.07;3.90;;;;;;;;;;5108555;27;20032;-64
2021/06/15 10:07:29;;;;;;;4.85;4.28;;;;;;;;;;5108474;28;20028;-64
2021/06/15 10:09:58;;;;;;;6.78;4.20;;;;;;;;;;5103727;28;20048;-64
2021/06/15 10:12:25;;;;;;;12.55;4.07;;;;;;;;;;5110551;28;20563;-63
2021/06/15 10:14:53;;;;;;;5.75;3.85;;;;;;;;;;5129467;27;20114;-64
2021/06/15 10:17:19;;;;;;;10.15;4.70;;;;;;;;;;5132572;27;20107;-64
2021/06/15 10:19:48;;;;;;;7.45;3.90;;;;;;;;;;5111778;28;20047;-64
2021/06/15 10:22:15;;;;;;;6.20;4.13;;;;;;;;;;5100802;27;20102;-64
2021/06/15 10:24:41;;;;;;;6.60;4.40;;;;;;;;;;5125394;27;20103;-63
2021/06/15 10:27:09;;;;;;;5.13;4.22;;;;;;;;;;5105499;28;20019;-64
2021/06/15 10:29:36;;;;;;;7.38;4.10;;;;;;;;;;5114218;28;20091;-64
2021/06/15 10:32:13;;;;;;;5.90;3.45;;;;;;;;;;5114401;28;20448;-63
2021/06/15 10:35:01;;;;;;;5.68;4.25;;;;;;;;;;5096343;28;20024;-64
2021/06/15 10:37:46;;;;;;;8.63;4.95;;;;;;;;;;5123060;27;20068;-64
2021/06/15 10:40:14;;;;;;;6.75;4.47;;;;;;;;;;5134874;27;20019;-65
2021/06/15 10:42:42;;;;;;;7.35;4.80;;;;;;;;;;5131325;27;20038;-64
2021/06/15 10:45:16;;;;;;;7.45;5.07;;;;;;;;;;5103074;27;20034;-64
2021/06/15 10:48:02;;;;;;;6.38;3.83;;;;;;;;;;5110377;28;20590;-64
2021/06/15 10:50:37;;;;;;;9.02;4.13;;;;;;;;;;5113849;28;20099;-65
2021/06/15 10:53:04;;;;;;;7.13;3.78;;;;;;;;;;5113824;28;20382;-66
2021/06/15 10:55:45;;;;;;;6.10;3.90;;;;;;;;;;5120925;27;20020;-65
2021/06/15 10:58:11;;;;;;;6.07;3.92;;;;;;;;;;5130692;27;20098;-64
2021/06/15 11:00:47;;;;;;;4.68;3.50;;;;;;;;;;5122303;27;20031;-65
2021/06/15 11:03:16;;;;;;;9.18;3.10;;;;;;;;;;5125070;27;20023;-64
2021/06/15 11:05:44;;;;;;;5.67;3.63;;;;;;;;;;5113922;28;20348;-65
2021/06/15 11:08:23;;;;;;;7.20;4.10;;;;;;;;;;5106810;28;20027;-65
2021/06/15 11:10:54;;;;;;;5.78;3.72;;;;;;;;;;5113351;28;20031;-65
2021/06/15 11:13:38;;;;;;;5.65;3.83;;;;;;;;;;5101517;27;20034;-64
2021/06/15 11:16:04;;;;;;;7.05;4.45;;;;;;;;;;5120103;27;20385;-64
2021/06/15 11:18:30;;;;;;;6.03;3.90;;;;;;;;;;5133925;27;20038;-65
2021/06/15 11:20:57;;;;;;;6.15;3.80;;;;;;;;;;5126238;27;20027;-65
2021/06/15 11:23:29;;;;;;;7.75;3.92;;;;;;;;;;5114232;27;20107;-65
2021/06/15 11:25:59;;;;;;;6.88;4.53;;;;;;;;;;5094143;28;20023;-65
2021/06/15 11:28:45;;;;;;;5.88;3.70;;;;;;;;;;5111861;28;20092;-65
2021/06/15 11:31:20;;;;;;;6.07;3.30;;;;;;;;;;5106355;27;20127;-66
2021/06/15 11:34:01;;;;;;;3.78;2.72;;;;;;;;;;5116777;27;20472;-65
2021/06/15 11:36:39;;;;;;;6.15;2.95;;;;;;;;;;5133708;27;20023;-65
2021/06/15 11:39:35;;;;;;;6.95;3.17;;;;;;;;;;5122087;27;20409;-65
2021/06/15 11:42:19;;;;;;;6.78;3.03;;;;;;;;;;5109859;27;20119;-65
2021/06/15 11:44:52;;;;;;;4.60;2.72;;;;;;;;;;5098923;28;20112;-64
2021/06/15 11:47:25;;;;;;;5.93;2.80;;;;;;;;;;5104152;28;20106;-65
2021/06/15 11:50:09;;;;;;;8.13;3.75;;;;;;;;;;5112661;28;20044;-65
2021/06/15 11:52:36;;;;;;;6.82;3.75;;;;;;;;;;5094855;28;20345;-65
2021/06/15 11:55:03;;;;;;;7.53;2.92;;;;;;;;;;5092754;28;20059;-65
2021/06/15 11:57:31;;;;;;;6.13;2.83;;;;;;;;;;5109930;27;20023;-65
2021/06/15 11:59:57;;;;;;;3.58;2.70;;;;;;;;;;5115428;27;20094;-65
2021/06/15 12:02:23;;;;;;;4.82;2.15;;;;;;;;;;5087769;28;20019;-65
2021/06/15 12:05:04;;;;;;;7.07;3.17;;;;;;;;;;5115977;27;20571;-63
2021/06/15 12:07:31;;;;;;;8.20;3.38;;;;;;;;;;5092187;28;20035;-63
2021/06/15 12:10:03;;;;;;;6.05;3.10;;;;;;;;;;5092018;28;20039;-63
2021/06/15 12:12:29;;;;;;;4.10;2.47;;;;;;;;;;5092869;28;20047;-64
2021/06/15 12:14:57;;;;;;;8.35;3.08;;;;;;;;;;5112136;28;20020;-63
2021/06/15 12:17:23;;;;;;;3.45;2.50;;;;;;;;;;5105478;28;20016;-63
2021/06/15 12:19:54;;;;;;;5.00;3.22;;;;;;;;;;5112324;28;20556;-63
2021/06/15 12:22:20;;;;;;;5.45;2.38;;;;;;;;;;5124767;27;20034;-64
2021/06/15 12:24:46;;;;;;;5.53;2.50;;;;;;;;;;5132196;27;20026;-64
2021/06/15 12:27:22;;;;;;;6.53;3.00;;;;;;;;;;5113430;28;20020;-64
2021/06/15 12:29:48;;;;;;;5.53;2.50;;;;;;;;;;5111658;28;20038;-64
2021/06/15 12:32:14;;;;;;;3.85;2.08;;;;;;;;;;5105080;28;20051;-64
2021/06/15 12:34:40;;;;;;;2.17;1.90;;;;;;;;;;5111722;27;20111;-64
2021/06/15 12:37:06;;;;;;;5.93;2.45;;;;;;;;;;5117225;27;20038;-63
2021/06/15 12:39:36;;;;;;;2.58;2.30;;;;;;;;;;5113790;27;20038;-65
2021/06/15 12:42:06;;;;;;;3.55;2.50;;;;;;;;;;5120084;27;20031;-64
2021/06/15 12:44:39;;;;;;;3.17;2.10;;;;;;;;;;5105872;27;20103;-64
2021/06/15 12:47:10;;;;;;;3.90;2.58;;;;;;;;;;5108565;27;20028;-64
2021/06/15 12:49:37;;;;;;;4.05;2.50;;;;;;;;;;5098388;28;20669;-64
2021/06/15 12:52:10;;;;;;;4.55;2.53;;;;;;;;;;5111514;28;20445;-64
2021/06/15 12:54:42;;;;;;;6.05;2.85;;;;;;;;;;5112234;27;20050;-63
2021/06/15 12:57:08;;;;;;;6.85;2.75;;;;;;;;;;5124503;27;20034;-63
2021/06/15 12:59:35;;;;;;;24.73;3.38;;;;;;;;;;5126273;27;20127;-65
2021/06/15 13:02:16;;;;;;;3.20;2.15;;;;;;;;;;5124959;27;20019;-64
2021/06/15 13:04:53;;;;;;;3.22;2.53;;;;;;;;;;5092927;28;20054;-63
2021/06/15 13:07:19;;;;;;;7.90;2.75;;;;;;;;;;5111273;28;20564;-64
2021/06/15 13:09:46;;;;;;;4.50;2.78;;;;;;;;;;5104351;28;20047;-64
2021/06/15 13:12:17;;;;;;;3.95;2.70;;;;;;;;;;5111092;28;20080;-64
2021/06/15 13:14:43;;;;;;;5.03;2.40;;;;;;;;;;5111501;28;20102;-64
2021/06/15 13:17:14;;;;;;;3.40;2.38;;;;;;;;;;5125436;28;20019;-65
2021/06/15 13:19:40;;;;;;;4.25;2.47;;;;;;;;;;5118733;28;20020;-64
2021/06/15 13:22:06;;;;;;;4.97;2.50;;;;;;;;;;5114895;28;20024;-64
2021/06/15 13:24:34;;;;;;;4.70;2.47;;;;;;;;;;5128319;28;20419;-64
2021/06/15 13:27:18;;;;;;;3.72;2.22;;;;;;;;;;5110886;28;20501;-64
2021/06/15 13:29:47;;;;;;;4.95;2.00;;;;;;;;;;5104400;28;20032;-64
2021/06/15 13:32:16;;;;;;;3.22;2.42;;;;;;;;;;5104298;28;20333;-64
2021/06/15 13:34:57;;;;;;;7.18;2.50;;;;;;;;;;5124102;28;20019;-64
2021/06/15 13:37:34;;;;;;;4.28;2.53;;;;;;;;;;5124885;27;20034;-64
2021/06/15 13:40:00;;;;;;;6.38;2.28;;;;;;;;;;5131746;28;20094;-62
2021/06/15 13:42:27;;;;;;;5.53;2.70;;;;;;;;;;5104795;28;20028;-63
2021/06/15 13:45:00;;;;;;;4.57;2.47;;;;;;;;;;5092606;28;20636;-63
2021/06/15 13:47:27;;;;;;;5.07;2.55;;;;;;;;;;5095424;28;20099;-65
2021/06/15 13:49:53;;;;;;;2.67;2.35;;;;;;;;;;5106552;28;20024;-64
2021/06/15 13:52:19;;;;;;;5.43;2.72;;;;;;;;;;5106045;28;20060;-64
2021/06/15 13:54:48;;;;;;;3.28;2.50;;;;;;;;;;5090206;28;20110;-64
2021/06/15 13:57:14;;;;;;;4.65;2.22;;;;;;;;;;5124109;27;20029;-64
2021/06/15 13:59:43;;;;;;;4.60;2.03;;;;;;;;;;5127281;27;20382;-64
2021/06/15 14:02:09;;;;;;;9.32;2.88;;;;;;;;;;5116324;27;20022;-64
2021/06/15 14:04:35;;;;;;;4.35;2.55;;;;;;;;;;5133907;27;20015;-63
2021/06/15 14:07:03;;;;;;;8.25;2.65;;;;;;;;;;5114587;28;20087;-66
2021/06/15 14:09:29;;;;;;;3.90;2.50;;;;;;;;;;5114321;28;20082;-65
2021/06/15 14:11:55;;;;;;;5.32;2.60;;;;;;;;;;5096411;28;20078;-64
2021/06/15 14:14:21;;;;;;;4.97;2.88;;;;;;;;;;5115280;27;20072;-66
2021/06/15 14:16:49;;;;;;;2.83;2.40;;;;;;;;;;5134690;27;20102;-65
2021/06/15 14:19:15;;;;;;;2.28;1.80;;;;;;;;;;5116786;27;20024;-67
2021/06/15 14:21:41;;;;;;;3.95;2.05;;;;;;;;;;5128232;27;20019;-65
2021/06/15 14:24:08;;;;;;;5.38;2.17;;;;;;;;;;5124325;27;20464;-67
2021/06/15 14:26:35;;;;;;;4.60;2.38;;;;;;;;;;5114755;27;20124;-67
2021/06/15 14:29:01;;;;;;;3.65;2.30;;;;;;;;;;5110791;27;20177;-68
2021/06/15 14:31:27;;;;;;;4.32;2.22;;;;;;;;;;5083210;28;20338;-67
2021/06/15 14:33:53;;;;;;;4.85;2.70;;;;;;;;;;5081391;28;20028;-66
2021/06/15 14:36:19;;;;;;;9.18;2.63;;;;;;;;;;5120999;27;20402;-66
2021/06/15 14:38:47;;;;;;;5.47;2.95;;;;;;;;;;5114655;28;20023;-67
2021/06/15 14:41:13;;;;;;;5.10;2.53;;;;;;;;;;5133537;27;20023;-68
2021/06/15 14:43:41;;;;;;;2.42;2.08;;;;;;;;;;5120582;27;20023;-67
2021/06/15 14:46:07;;;;;;;3.33;2.40;;;;;;;;;;5101871;27;20035;-68
2021/06/15 14:48:33;;;;;;;4.60;2.30;;;;;;;;;;5104838;28;20023;-66